Eko 2 — SY9957 — position and weather

sailwx.info

Track history (hours):
 
Tides and Currents Weather Stations Pressure Air Temp Water Temp Dewpoint Dewpoint Depression Visibility Wind Speed Wind Dir Waves Ship Positions

Eko 2

Last reported at 2017-Nov-18 22:50 UTC. Time now 2017-Nov-20 19:28 UTC.
Position N 37°10' E 025°48'.

Length 89 m; draft 4.3 m.

Type: Ship (hazmat cat A). MMSI: 240827000.

Date/timePositionNaut miles runAvg speedWind from/ knotsBaromVisibWave heightAir tempDewpointWater temp
2017-Nov-18 22:50N 37°10' E 025°48'3 8.4
2017-Nov-18 22:30N 37°11' E 025°44'4 8.7
2017-Nov-18 22:00N 37°12' E 025°39'7 8.8
2017-Nov-18 21:09N 37°13' E 025°30'1 8.6
2017-Nov-18 21:00N 37°13' E 025°29'4 8.9
2017-Nov-18 20:30N 37°10' E 025°24'4 8.0
2017-Nov-18 20:00N 37°06' E 025°22'0 0.6
2017-Nov-18 19:30N 37°06' E 025°22'0 0.0
2017-Nov-18 19:00N 37°06' E 025°22'0 0.0
2017-Nov-18 18:30N 37°06' E 025°22'0 0.0
2017-Nov-18 17:57N 37°06' E 025°22'0 0.0
2017-Nov-18 17:30N 37°06' E 025°22'0 0.0
2017-Nov-18 17:00N 37°06' E 025°22'0 0.0
2017-Nov-18 16:30N 37°06' E 025°22'1 1.3
2017-Nov-18 16:00N 37°06' E 025°22'0 0.1
2017-Nov-18 15:30N 37°06' E 025°22'0 0.0
2017-Nov-18 15:00N 37°06' E 025°22'0 0.0
2017-Nov-18 14:30N 37°06' E 025°22'0 0.0
2017-Nov-18 14:00N 37°06' E 025°22'0 0.0
2017-Nov-18 13:30N 37°06' E 025°22'0 0.0
2017-Nov-18 13:00N 37°06' E 025°22'0 0.1
2017-Nov-18 12:30N 37°06' E 025°22'0 0.1
2017-Nov-18 11:57N 37°06' E 025°22'0 0.1
2017-Nov-18 11:30N 37°06' E 025°22'0 0.1
2017-Nov-18 11:00N 37°06' E 025°22'0 0.0
2017-Nov-18 10:30N 37°06' E 025°22'0 0.0
2017-Nov-18 10:00N 37°06' E 025°22'0 0.0
2017-Nov-18 09:24N 37°06' E 025°22'0 0.0
2017-Nov-18 09:00N 37°06' E 025°22'0 0.2
2017-Nov-18 08:30N 37°06' E 025°22'0 0.1
2017-Nov-18 08:00N 37°06' E 025°22'0 0.0
2017-Nov-18 07:30N 37°06' E 025°22'0 0.1
2017-Nov-18 06:57N 37°06' E 025°22'0 0.0
2017-Nov-18 06:30N 37°06' E 025°22'0 0.6
2017-Nov-18 06:01N 37°06' E 025°22'3 5.3
2017-Nov-18 05:31N 37°09' E 025°20'4 7.8
2017-Nov-18 05:01N 37°11' E 025°17'4 8.2
2017-Nov-18 04:30N 37°11' E 025°12'4 8.1
2017-Nov-18 04:01N 37°10' E 025°07'4 7.9
2017-Nov-18 03:30N 37°09' E 025°02'4 7.8
2017-Nov-18 03:01N 37°08' E 024°57'8 0.5
2017-Nov-17 11:32N 37°13' E 024°49'010.8
2017-Nov-17 11:30N 37°13' E 024°49'510.6
2017-Nov-17 11:00N 37°17' E 024°54'510.0
2017-Nov-17 10:30N 37°21' E 024°58'510.1
2017-Nov-17 09:58N 37°25' E 025°03'510.8
2017-Nov-17 09:31N 37°29' E 025°06'4 8.3
2017-Nov-17 09:00N 37°32' E 025°09'0 0.1
2017-Nov-17 08:30N 37°32' E 025°09'0 0.0
2017-Nov-17 08:00N 37°32' E 025°09'0 0.0
2017-Nov-17 07:27N 37°32' E 025°09'0 0.0
2017-Nov-17 07:00N 37°32' E 025°09'0 0.0
2017-Nov-17 06:30N 37°32' E 025°09'0 0.0
2017-Nov-17 06:00N 37°32' E 025°09'0 0.0
2017-Nov-17 05:24N 37°32' E 025°09'0 0.0
2017-Nov-17 05:00N 37°32' E 025°09'0 0.0
2017-Nov-17 04:30N 37°32' E 025°09'0 0.0
2017-Nov-17 04:00N 37°32' E 025°09'0 0.0
2017-Nov-17 03:30N 37°32' E 025°09'0 0.0
2017-Nov-17 03:00N 37°32' E 025°09'0 0.0
2017-Nov-17 02:30N 37°32' E 025°09'0 0.0
2017-Nov-17 02:00N 37°32' E 025°09'0 0.0
2017-Nov-17 01:30N 37°32' E 025°09'0 0.0
2017-Nov-17 00:39N 37°32' E 025°09'0 0.0
2017-Nov-17 00:30N 37°32' E 025°09'0 0.0
2017-Nov-17 00:00N 37°32' E 025°09'0 0.0
2017-Nov-16 23:30N 37°32' E 025°09'0 0.0
2017-Nov-16 23:00N 37°32' E 025°09'0 0.0
2017-Nov-16 22:30N 37°32' E 025°09'0 0.0
2017-Nov-16 22:00N 37°32' E 025°09'0 0.0
2017-Nov-16 21:30N 37°32' E 025°09'0 0.0
2017-Nov-16 21:00N 37°32' E 025°09'0 0.0
2017-Nov-16 20:30N 37°32' E 025°09'0 0.0
2017-Nov-16 20:00N 37°32' E 025°09'0 0.0
2017-Nov-16 19:30N 37°32' E 025°09'0 0.0
2017-Nov-16 19:00N 37°32' E 025°09'0 0.0
2017-Nov-16 18:30N 37°32' E 025°09'0 0.0
2017-Nov-16 18:00N 37°32' E 025°09'0 0.0
2017-Nov-16 17:30N 37°32' E 025°09'0 0.0
2017-Nov-16 17:00N 37°32' E 025°09'0 0.0
2017-Nov-16 16:30N 37°32' E 025°09'0 0.0
2017-Nov-16 16:00N 37°32' E 025°09'0 0.2
2017-Nov-16 15:30N 37°32' E 025°09'5 9.5
2017-Nov-16 15:00N 37°28' E 025°10'511.0
2017-Nov-16 14:30N 37°22' E 025°12'510.6
2017-Nov-16 14:00N 37°17' E 025°15'510.5
2017-Nov-16 13:30N 37°13' E 025°17'510.6
2017-Nov-16 13:00N 37°08' E 025°19'611.0
2017-Nov-16 12:30N 37°02' E 025°17'  
2017-Nov-14 07:52N 37°08' E 025°45'410.8
2017-Nov-14 07:30N 37°11' E 025°46'510.9
2017-Nov-14 07:00N 37°17' E 025°48'511.0
2017-Nov-14 06:30N 37°22' E 025°50'510.0
2017-Nov-14 06:00N 37°27' E 025°52'5 9.8
2017-Nov-14 05:30N 37°31' E 025°55'  
2017-Nov-09 13:12N 37°38' E 023°44'210.8
2017-Nov-09 13:00N 37°40' E 023°42'511.0
2017-Nov-09 12:30N 37°45' E 023°39'611.3
2017-Nov-09 12:00N 37°50' E 023°37'610.9
2017-Nov-09 11:29N 37°56' E 023°36'4 8.5
2017-Nov-09 11:00N 37°58' E 023°33'3 6.1
2017-Nov-09 10:28N 38°02' E 023°32'0 0.0
2017-Nov-09 09:55N 38°02' E 023°32'0 0.1
2017-Nov-09 09:28N 38°02' E 023°32'0 0.0
2017-Nov-09 08:58N 38°02' E 023°32'0 0.1
2017-Nov-09 08:25N 38°02' E 023°32'0 0.1
2017-Nov-09 07:55N 38°02' E 023°32'0 0.0
2017-Nov-09 07:28N 38°02' E 023°32'0 0.0
2017-Nov-09 06:58N 38°02' E 023°32'0 0.1
2017-Nov-09 06:28N 38°02' E 023°32'0 0.0
2017-Nov-09 05:55N 38°02' E 023°32'0 0.6
2017-Nov-09 05:30N 38°02' E 023°32'0 0.1
2017-Nov-09 04:57N 38°02' E 023°32'0 0.0
2017-Nov-09 04:30N 38°02' E 023°32'0 0.0
2017-Nov-09 04:00N 38°02' E 023°32'0 0.0
2017-Nov-09 03:30N 38°02' E 023°32'0 0.0
2017-Nov-09 03:00N 38°02' E 023°32'0 0.0
2017-Nov-09 02:30N 38°02' E 023°32'0 0.0
2017-Nov-09 02:00N 38°02' E 023°32'0 0.0
2017-Nov-09 01:30N 38°02' E 023°32'0 0.0
2017-Nov-09 01:00N 38°02' E 023°32'0 0.0
2017-Nov-09 00:30N 38°02' E 023°32'0 0.0
2017-Nov-09 00:00N 38°02' E 023°32'0 0.0
2017-Nov-08 23:30N 38°02' E 023°32'0 0.0
2017-Nov-08 23:00N 38°02' E 023°32'  
Track history (hours):
 
Tides and Currents Weather Stations Pressure Air Temp Water Temp Dewpoint Dewpoint Depression Visibility Wind Speed Wind Dir Waves Ship Positions

Eko 2

Last reported at 2017-Nov-18 22:50 UTC. Time now 2017-Nov-20 19:28 UTC.
Position N 37°10' E 025°48'.

Length 89 m; draft 4.3 m.

Type: Ship (hazmat cat A). MMSI: 240827000.

Date/timePositionNaut miles runAvg speedWind from/ knotsBaromVisibWave heightAir tempDewpointWater temp
2017-Nov-18 22:50N 37°10' E 025°48'3 8.4
2017-Nov-18 22:30N 37°11' E 025°44'4 8.7
2017-Nov-18 22:00N 37°12' E 025°39'7 8.8
2017-Nov-18 21:09N 37°13' E 025°30'1 8.6
2017-Nov-18 21:00N 37°13' E 025°29'4 8.9
2017-Nov-18 20:30N 37°10' E 025°24'4 8.0
2017-Nov-18 20:00N 37°06' E 025°22'0 0.6
2017-Nov-18 19:30N 37°06' E 025°22'0 0.0
2017-Nov-18 19:00N 37°06' E 025°22'0 0.0
2017-Nov-18 18:30N 37°06' E 025°22'0 0.0
2017-Nov-18 17:57N 37°06' E 025°22'0 0.0
2017-Nov-18 17:30N 37°06' E 025°22'0 0.0
2017-Nov-18 17:00N 37°06' E 025°22'0 0.0
2017-Nov-18 16:30N 37°06' E 025°22'1 1.3
2017-Nov-18 16:00N 37°06' E 025°22'0 0.1
2017-Nov-18 15:30N 37°06' E 025°22'0 0.0
2017-Nov-18 15:00N 37°06' E 025°22'0 0.0
2017-Nov-18 14:30N 37°06' E 025°22'0 0.0
2017-Nov-18 14:00N 37°06' E 025°22'0 0.0
2017-Nov-18 13:30N 37°06' E 025°22'0 0.0
2017-Nov-18 13:00N 37°06' E 025°22'0 0.1
2017-Nov-18 12:30N 37°06' E 025°22'0 0.1
2017-Nov-18 11:57N 37°06' E 025°22'0 0.1
2017-Nov-18 11:30N 37°06' E 025°22'0 0.1
2017-Nov-18 11:00N 37°06' E 025°22'0 0.0
2017-Nov-18 10:30N 37°06' E 025°22'0 0.0
2017-Nov-18 10:00N 37°06' E 025°22'0 0.0
2017-Nov-18 09:24N 37°06' E 025°22'0 0.0
2017-Nov-18 09:00N 37°06' E 025°22'0 0.2
2017-Nov-18 08:30N 37°06' E 025°22'0 0.1
2017-Nov-18 08:00N 37°06' E 025°22'0 0.0
2017-Nov-18 07:30N 37°06' E 025°22'0 0.1
2017-Nov-18 06:57N 37°06' E 025°22'0 0.0
2017-Nov-18 06:30N 37°06' E 025°22'0 0.6
2017-Nov-18 06:01N 37°06' E 025°22'3 5.3
2017-Nov-18 05:31N 37°09' E 025°20'4 7.8
2017-Nov-18 05:01N 37°11' E 025°17'4 8.2
2017-Nov-18 04:30N 37°11' E 025°12'4 8.1
2017-Nov-18 04:01N 37°10' E 025°07'4 7.9
2017-Nov-18 03:30N 37°09' E 025°02'4 7.8
2017-Nov-18 03:01N 37°08' E 024°57'8 0.5
2017-Nov-17 11:32N 37°13' E 024°49'010.8
2017-Nov-17 11:30N 37°13' E 024°49'510.6
2017-Nov-17 11:00N 37°17' E 024°54'510.0
2017-Nov-17 10:30N 37°21' E 024°58'510.1
2017-Nov-17 09:58N 37°25' E 025°03'510.8
2017-Nov-17 09:31N 37°29' E 025°06'4 8.3
2017-Nov-17 09:00N 37°32' E 025°09'0 0.1
2017-Nov-17 08:30N 37°32' E 025°09'0 0.0
2017-Nov-17 08:00N 37°32' E 025°09'0 0.0
2017-Nov-17 07:27N 37°32' E 025°09'0 0.0
2017-Nov-17 07:00N 37°32' E 025°09'0 0.0
2017-Nov-17 06:30N 37°32' E 025°09'0 0.0
2017-Nov-17 06:00N 37°32' E 025°09'0 0.0
2017-Nov-17 05:24N 37°32' E 025°09'0 0.0
2017-Nov-17 05:00N 37°32' E 025°09'0 0.0
2017-Nov-17 04:30N 37°32' E 025°09'0 0.0
2017-Nov-17 04:00N 37°32' E 025°09'0 0.0
2017-Nov-17 03:30N 37°32' E 025°09'0 0.0
2017-Nov-17 03:00N 37°32' E 025°09'0 0.0
2017-Nov-17 02:30N 37°32' E 025°09'0 0.0
2017-Nov-17 02:00N 37°32' E 025°09'0 0.0
2017-Nov-17 01:30N 37°32' E 025°09'0 0.0
2017-Nov-17 00:39N 37°32' E 025°09'0 0.0
2017-Nov-17 00:30N 37°32' E 025°09'0 0.0
2017-Nov-17 00:00N 37°32' E 025°09'0 0.0
2017-Nov-16 23:30N 37°32' E 025°09'0 0.0
2017-Nov-16 23:00N 37°32' E 025°09'0 0.0
2017-Nov-16 22:30N 37°32' E 025°09'0 0.0
2017-Nov-16 22:00N 37°32' E 025°09'0 0.0
2017-Nov-16 21:30N 37°32' E 025°09'0 0.0
2017-Nov-16 21:00N 37°32' E 025°09'0 0.0
2017-Nov-16 20:30N 37°32' E 025°09'0 0.0
2017-Nov-16 20:00N 37°32' E 025°09'0 0.0
2017-Nov-16 19:30N 37°32' E 025°09'0 0.0
2017-Nov-16 19:00N 37°32' E 025°09'0 0.0
2017-Nov-16 18:30N 37°32' E 025°09'0 0.0
2017-Nov-16 18:00N 37°32' E 025°09'0 0.0
2017-Nov-16 17:30N 37°32' E 025°09'0 0.0
2017-Nov-16 17:00N 37°32' E 025°09'0 0.0
2017-Nov-16 16:30N 37°32' E 025°09'0 0.0
2017-Nov-16 16:00N 37°32' E 025°09'0 0.2
2017-Nov-16 15:30N 37°32' E 025°09'5 9.5
2017-Nov-16 15:00N 37°28' E 025°10'511.0
2017-Nov-16 14:30N 37°22' E 025°12'510.6
2017-Nov-16 14:00N 37°17' E 025°15'510.5
2017-Nov-16 13:30N 37°13' E 025°17'510.6
2017-Nov-16 13:00N 37°08' E 025°19'611.0
2017-Nov-16 12:30N 37°02' E 025°17'  
2017-Nov-14 07:52N 37°08' E 025°45'410.8
2017-Nov-14 07:30N 37°11' E 025°46'510.9
2017-Nov-14 07:00N 37°17' E 025°48'511.0
2017-Nov-14 06:30N 37°22' E 025°50'510.0
2017-Nov-14 06:00N 37°27' E 025°52'5 9.8
2017-Nov-14 05:30N 37°31' E 025°55'  
2017-Nov-09 13:12N 37°38' E 023°44'210.8
2017-Nov-09 13:00N 37°40' E 023°42'511.0
2017-Nov-09 12:30N 37°45' E 023°39'611.3
2017-Nov-09 12:00N 37°50' E 023°37'610.9
2017-Nov-09 11:29N 37°56' E 023°36'4 8.5
2017-Nov-09 11:00N 37°58' E 023°33'3 6.1
2017-Nov-09 10:28N 38°02' E 023°32'0 0.0
2017-Nov-09 09:55N 38°02' E 023°32'0 0.1
2017-Nov-09 09:28N 38°02' E 023°32'0 0.0
2017-Nov-09 08:58N 38°02' E 023°32'0 0.1
2017-Nov-09 08:25N 38°02' E 023°32'0 0.1
2017-Nov-09 07:55N 38°02' E 023°32'0 0.0
2017-Nov-09 07:28N 38°02' E 023°32'0 0.0
2017-Nov-09 06:58N 38°02' E 023°32'0 0.1
2017-Nov-09 06:28N 38°02' E 023°32'0 0.0
2017-Nov-09 05:55N 38°02' E 023°32'0 0.6
2017-Nov-09 05:30N 38°02' E 023°32'0 0.1
2017-Nov-09 04:57N 38°02' E 023°32'0 0.0
2017-Nov-09 04:30N 38°02' E 023°32'0 0.0
2017-Nov-09 04:00N 38°02' E 023°32'0 0.0
2017-Nov-09 03:30N 38°02' E 023°32'0 0.0
2017-Nov-09 03:00N 38°02' E 023°32'0 0.0
2017-Nov-09 02:30N 38°02' E 023°32'0 0.0
2017-Nov-09 02:00N 38°02' E 023°32'0 0.0
2017-Nov-09 01:30N 38°02' E 023°32'0 0.0
2017-Nov-09 01:00N 38°02' E 023°32'0 0.0
2017-Nov-09 00:30N 38°02' E 023°32'0 0.0
2017-Nov-09 00:00N 38°02' E 023°32'0 0.0
2017-Nov-08 23:30N 38°02' E 023°32'0 0.0
2017-Nov-08 23:00N 38°02' E 023°32'  

Dump ship's entire track history